sensor_id;sensor_type;location;lat;lon;timestamp;P1;durP1;ratioP1;P2;durP2;ratioP2
15764;SDS011;7983;50.744;7.086;2023-04-03T00:01:15;2.00;;;1.10;;
15764;SDS011;7983;50.744;7.086;2023-04-03T00:03:44;1.83;;;1.00;;
15764;SDS011;7983;50.744;7.086;2023-04-03T00:06:12;1.40;;;1.00;;
15764;SDS011;7983;50.744;7.086;2023-04-03T00:08:40;3.03;;;1.20;;
15764;SDS011;7983;50.744;7.086;2023-04-03T00:11:06;2.00;;;1.10;;
15764;SDS011;7983;50.744;7.086;2023-04-03T00:13:33;2.03;;;1.00;;
15764;SDS011;7983;50.744;7.086;2023-04-03T00:15:59;1.90;;;1.00;;
15764;SDS011;7983;50.744;7.086;2023-04-03T00:18:25;1.30;;;1.13;;
15764;SDS011;7983;50.744;7.086;2023-04-03T00:20:51;2.97;;;1.50;;
15764;SDS011;7983;50.744;7.086;2023-04-03T00:23:16;1.77;;;1.10;;
15764;SDS011;7983;50.744;7.086;2023-04-03T00:25:42;2.00;;;1.10;;
15764;SDS011;7983;50.744;7.086;2023-04-03T00:28:11;2.03;;;1.20;;
15764;SDS011;7983;50.744;7.086;2023-04-03T00:30:36;2.80;;;1.10;;
15764;SDS011;7983;50.744;7.086;2023-04-03T00:33:05;1.50;;;0.90;;
15764;SDS011;7983;50.744;7.086;2023-04-03T00:35:31;1.33;;;1.00;;
15764;SDS011;7983;50.744;7.086;2023-04-03T00:38:00;1.53;;;1.10;;
15764;SDS011;7983;50.744;7.086;2023-04-03T00:40:32;1.10;;;1.00;;
15764;SDS011;7983;50.744;7.086;2023-04-03T00:43:14;2.03;;;1.20;;
15764;SDS011;7983;50.744;7.086;2023-04-03T00:45:41;1.10;;;1.00;;
15764;SDS011;7983;50.744;7.086;2023-04-03T00:48:11;1.83;;;1.20;;
15764;SDS011;7983;50.744;7.086;2023-04-03T00:50:44;1.83;;;1.20;;
15764;SDS011;7983;50.744;7.086;2023-04-03T00:53:18;2.83;;;1.17;;
15764;SDS011;7983;50.744;7.086;2023-04-03T00:55:49;1.90;;;1.17;;
15764;SDS011;7983;50.744;7.086;2023-04-03T00:58:19;1.40;;;1.07;;
15764;SDS011;7983;50.744;7.086;2023-04-03T01:00:54;1.80;;;1.00;;
15764;SDS011;7983;50.744;7.086;2023-04-03T01:03:23;1.80;;;1.20;;
15764;SDS011;7983;50.744;7.086;2023-04-03T01:05:49;1.50;;;1.07;;
15764;SDS011;7983;50.744;7.086;2023-04-03T01:08:15;2.43;;;1.20;;
15764;SDS011;7983;50.744;7.086;2023-04-03T01:10:41;1.50;;;1.10;;
15764;SDS011;7983;50.744;7.086;2023-04-03T01:13:24;1.77;;;1.40;;
15764;SDS011;7983;50.744;7.086;2023-04-03T01:15:51;1.80;;;1.00;;
15764;SDS011;7983;50.744;7.086;2023-04-03T01:18:17;1.10;;;1.00;;
15764;SDS011;7983;50.744;7.086;2023-04-03T01:20:56;1.90;;;1.30;;
15764;SDS011;7983;50.744;7.086;2023-04-03T01:26:30;1.30;;;1.10;;
15764;SDS011;7983;50.744;7.086;2023-04-03T01:28:58;2.60;;;1.20;;
15764;SDS011;7983;50.744;7.086;2023-04-03T01:31:31;1.97;;;1.30;;
15764;SDS011;7983;50.744;7.086;2023-04-03T01:34:18;2.43;;;1.30;;
15764;SDS011;7983;50.744;7.086;2023-04-03T01:36:44;1.80;;;1.20;;
15764;SDS011;7983;50.744;7.086;2023-04-03T01:39:12;1.60;;;1.10;;
15764;SDS011;7983;50.744;7.086;2023-04-03T01:41:40;2.57;;;1.30;;
15764;SDS011;7983;50.744;7.086;2023-04-03T01:44:08;1.33;;;1.10;;
15764;SDS011;7983;50.744;7.086;2023-04-03T01:46:34;2.00;;;1.33;;
15764;SDS011;7983;50.744;7.086;2023-04-03T01:49:02;2.20;;;1.40;;
15764;SDS011;7983;50.744;7.086;2023-04-03T01:51:30;2.20;;;1.30;;
15764;SDS011;7983;50.744;7.086;2023-04-03T01:53:56;2.10;;;1.10;;
15764;SDS011;7983;50.744;7.086;2023-04-03T01:56:23;2.27;;;1.20;;
15764;SDS011;7983;50.744;7.086;2023-04-03T01:58:50;2.07;;;1.10;;
15764;SDS011;7983;50.744;7.086;2023-04-03T02:01:16;2.40;;;1.00;;
15764;SDS011;7983;50.744;7.086;2023-04-03T02:03:44;1.13;;;1.03;;
15764;SDS011;7983;50.744;7.086;2023-04-03T02:06:14;1.77;;;1.20;;
15764;SDS011;7983;50.744;7.086;2023-04-03T02:08:40;3.00;;;1.20;;
15764;SDS011;7983;50.744;7.086;2023-04-03T02:11:10;1.90;;;1.20;;
15764;SDS011;7983;50.744;7.086;2023-04-03T02:13:36;1.50;;;1.03;;
15764;SDS011;7983;50.744;7.086;2023-04-03T02:16:11;2.87;;;1.40;;
15764;SDS011;7983;50.744;7.086;2023-04-03T02:18:42;2.70;;;1.40;;
15764;SDS011;7983;50.744;7.086;2023-04-03T02:21:08;2.57;;;1.30;;
15764;SDS011;7983;50.744;7.086;2023-04-03T02:23:36;3.03;;;1.20;;
15764;SDS011;7983;50.744;7.086;2023-04-03T02:26:09;1.67;;;1.40;;
15764;SDS011;7983;50.744;7.086;2023-04-03T02:28:36;2.73;;;1.30;;
15764;SDS011;7983;50.744;7.086;2023-04-03T02:31:02;1.60;;;1.30;;
15764;SDS011;7983;50.744;7.086;2023-04-03T02:33:34;2.00;;;1.20;;
15764;SDS011;7983;50.744;7.086;2023-04-03T02:36:03;1.50;;;1.30;;
15764;SDS011;7983;50.744;7.086;2023-04-03T02:38:33;1.70;;;1.10;;
15764;SDS011;7983;50.744;7.086;2023-04-03T02:41:02;2.03;;;1.47;;
15764;SDS011;7983;50.744;7.086;2023-04-03T02:43:29;2.17;;;1.20;;
15764;SDS011;7983;50.744;7.086;2023-04-03T02:45:55;1.40;;;1.17;;
15764;SDS011;7983;50.744;7.086;2023-04-03T02:48:21;2.07;;;1.20;;
15764;SDS011;7983;50.744;7.086;2023-04-03T02:50:53;1.50;;;1.30;;
15764;SDS011;7983;50.744;7.086;2023-04-03T02:53:19;1.53;;;1.10;;
15764;SDS011;7983;50.744;7.086;2023-04-03T02:55:47;2.13;;;1.20;;
15764;SDS011;7983;50.744;7.086;2023-04-03T02:58:13;1.70;;;1.20;;
15764;SDS011;7983;50.744;7.086;2023-04-03T03:00:41;3.00;;;1.30;;
15764;SDS011;7983;50.744;7.086;2023-04-03T03:03:09;1.67;;;1.40;;
15764;SDS011;7983;50.744;7.086;2023-04-03T03:05:35;2.83;;;1.73;;
15764;SDS011;7983;50.744;7.086;2023-04-03T03:08:03;3.53;;;1.73;;
15764;SDS011;7983;50.744;7.086;2023-04-03T03:10:28;1.63;;;1.40;;
15764;SDS011;7983;50.744;7.086;2023-04-03T03:12:54;2.47;;;1.70;;
15764;SDS011;7983;50.744;7.086;2023-04-03T03:15:22;1.37;;;1.20;;
15764;SDS011;7983;50.744;7.086;2023-04-03T03:17:47;3.27;;;1.40;;
15764;SDS011;7983;50.744;7.086;2023-04-03T03:20:13;1.60;;;1.37;;
15764;SDS011;7983;50.744;7.086;2023-04-03T03:22:41;1.40;;;1.27;;
15764;SDS011;7983;50.744;7.086;2023-04-03T03:25:07;2.17;;;1.50;;
15764;SDS011;7983;50.744;7.086;2023-04-03T03:27:33;2.70;;;1.50;;
15764;SDS011;7983;50.744;7.086;2023-04-03T03:30:01;1.50;;;1.20;;
15764;SDS011;7983;50.744;7.086;2023-04-03T03:32:29;3.20;;;2.10;;
15764;SDS011;7983;50.744;7.086;2023-04-03T03:34:54;4.13;;;2.30;;
15764;SDS011;7983;50.744;7.086;2023-04-03T03:37:20;2.83;;;2.10;;
15764;SDS011;7983;50.744;7.086;2023-04-03T03:39:46;3.00;;;2.20;;
15764;SDS011;7983;50.744;7.086;2023-04-03T03:42:14;4.40;;;1.93;;
15764;SDS011;7983;50.744;7.086;2023-04-03T03:44:44;3.33;;;2.07;;
15764;SDS011;7983;50.744;7.086;2023-04-03T03:47:12;3.23;;;2.23;;
15764;SDS011;7983;50.744;7.086;2023-04-03T03:49:40;3.33;;;2.10;;
15764;SDS011;7983;50.744;7.086;2023-04-03T03:52:05;2.37;;;1.70;;
15764;SDS011;7983;50.744;7.086;2023-04-03T03:54:35;1.90;;;1.70;;
15764;SDS011;7983;50.744;7.086;2023-04-03T03:57:03;2.03;;;1.60;;
15764;SDS011;7983;50.744;7.086;2023-04-03T03:59:31;1.93;;;1.50;;
15764;SDS011;7983;50.744;7.086;2023-04-03T04:01:59;2.50;;;1.60;;
15764;SDS011;7983;50.744;7.086;2023-04-03T04:04:25;3.80;;;1.80;;
15764;SDS011;7983;50.744;7.086;2023-04-03T04:06:58;2.67;;;2.17;;
15764;SDS011;7983;50.744;7.086;2023-04-03T04:09:26;3.83;;;2.93;;
15764;SDS011;7983;50.744;7.086;2023-04-03T04:11:52;5.50;;;3.37;;
15764;SDS011;7983;50.744;7.086;2023-04-03T04:14:20;3.20;;;2.20;;
15764;SDS011;7983;50.744;7.086;2023-04-03T04:16:47;4.40;;;2.40;;
15764;SDS011;7983;50.744;7.086;2023-04-03T04:19:15;4.13;;;2.27;;
15764;SDS011;7983;50.744;7.086;2023-04-03T04:21:43;3.13;;;2.57;;
15764;SDS011;7983;50.744;7.086;2023-04-03T04:24:09;4.13;;;2.17;;
15764;SDS011;7983;50.744;7.086;2023-04-03T04:26:35;2.00;;;1.63;;
15764;SDS011;7983;50.744;7.086;2023-04-03T04:29:00;3.50;;;1.90;;
15764;SDS011;7983;50.744;7.086;2023-04-03T04:31:28;3.63;;;1.80;;
15764;SDS011;7983;50.744;7.086;2023-04-03T04:33:57;5.10;;;3.50;;
15764;SDS011;7983;50.744;7.086;2023-04-03T04:36:22;3.93;;;2.70;;
15764;SDS011;7983;50.744;7.086;2023-04-03T04:38:50;3.53;;;2.33;;
15764;SDS011;7983;50.744;7.086;2023-04-03T04:41:18;2.47;;;1.73;;
15764;SDS011;7983;50.744;7.086;2023-04-03T04:43:49;2.53;;;1.73;;
15764;SDS011;7983;50.744;7.086;2023-04-03T04:46:15;2.27;;;1.70;;
15764;SDS011;7983;50.744;7.086;2023-04-03T04:48:41;1.60;;;1.50;;
15764;SDS011;7983;50.744;7.086;2023-04-03T04:51:06;2.70;;;2.03;;
15764;SDS011;7983;50.744;7.086;2023-04-03T04:53:37;2.73;;;1.50;;
15764;SDS011;7983;50.744;7.086;2023-04-03T04:56:03;2.27;;;1.50;;
15764;SDS011;7983;50.744;7.086;2023-04-03T04:58:29;1.87;;;1.30;;
15764;SDS011;7983;50.744;7.086;2023-04-03T05:01:04;2.63;;;1.47;;
15764;SDS011;7983;50.744;7.086;2023-04-03T05:03:31;2.20;;;1.30;;
15764;SDS011;7983;50.744;7.086;2023-04-03T05:05:57;1.80;;;1.10;;
15764;SDS011;7983;50.744;7.086;2023-04-03T05:08:23;1.70;;;1.50;;
15764;SDS011;7983;50.744;7.086;2023-04-03T05:10:51;2.67;;;1.20;;
15764;SDS011;7983;50.744;7.086;2023-04-03T05:13:18;1.73;;;1.17;;
15764;SDS011;7983;50.744;7.086;2023-04-03T05:15:46;2.90;;;1.40;;
15764;SDS011;7983;50.744;7.086;2023-04-03T05:18:12;3.13;;;1.30;;
15764;SDS011;7983;50.744;7.086;2023-04-03T05:20:40;1.30;;;1.20;;
15764;SDS011;7983;50.744;7.086;2023-04-03T05:23:06;1.67;;;1.23;;
15764;SDS011;7983;50.744;7.086;2023-04-03T05:25:36;1.80;;;1.40;;
15764;SDS011;7983;50.744;7.086;2023-04-03T05:28:03;2.27;;;1.13;;
15764;SDS011;7983;50.744;7.086;2023-04-03T05:30:30;1.57;;;1.27;;
15764;SDS011;7983;50.744;7.086;2023-04-03T05:32:58;2.40;;;1.20;;
15764;SDS011;7983;50.744;7.086;2023-04-03T05:35:31;2.70;;;1.40;;
15764;SDS011;7983;50.744;7.086;2023-04-03T05:38:00;3.30;;;1.30;;
15764;SDS011;7983;50.744;7.086;2023-04-03T05:40:28;2.10;;;1.23;;
15764;SDS011;7983;50.744;7.086;2023-04-03T05:42:56;3.10;;;1.20;;
15764;SDS011;7983;50.744;7.086;2023-04-03T05:45:21;1.87;;;1.10;;
15764;SDS011;7983;50.744;7.086;2023-04-03T05:47:47;1.70;;;1.20;;
15764;SDS011;7983;50.744;7.086;2023-04-03T05:50:12;1.80;;;1.03;;
15764;SDS011;7983;50.744;7.086;2023-04-03T05:52:40;2.53;;;1.40;;
15764;SDS011;7983;50.744;7.086;2023-04-03T05:55:07;3.73;;;1.27;;
15764;SDS011;7983;50.744;7.086;2023-04-03T05:57:33;1.90;;;1.27;;
15764;SDS011;7983;50.744;7.086;2023-04-03T05:59:59;1.50;;;1.37;;
15764;SDS011;7983;50.744;7.086;2023-04-03T06:02:33;4.00;;;1.50;;
15764;SDS011;7983;50.744;7.086;2023-04-03T06:05:00;2.70;;;1.60;;
15764;SDS011;7983;50.744;7.086;2023-04-03T06:07:27;1.80;;;1.30;;
15764;SDS011;7983;50.744;7.086;2023-04-03T06:09:54;3.07;;;1.57;;
15764;SDS011;7983;50.744;7.086;2023-04-03T06:12:22;1.50;;;1.10;;
15764;SDS011;7983;50.744;7.086;2023-04-03T06:14:51;2.97;;;1.40;;
15764;SDS011;7983;50.744;7.086;2023-04-03T06:17:18;2.77;;;1.80;;
15764;SDS011;7983;50.744;7.086;2023-04-03T06:19:45;3.07;;;1.40;;
15764;SDS011;7983;50.744;7.086;2023-04-03T06:22:11;2.40;;;1.70;;
15764;SDS011;7983;50.744;7.086;2023-04-03T06:24:37;2.73;;;1.50;;
15764;SDS011;7983;50.744;7.086;2023-04-03T06:27:05;2.27;;;1.30;;
15764;SDS011;7983;50.744;7.086;2023-04-03T06:29:33;2.57;;;1.47;;
15764;SDS011;7983;50.744;7.086;2023-04-03T06:32:02;3.53;;;1.33;;
15764;SDS011;7983;50.744;7.086;2023-04-03T06:34:27;2.07;;;1.20;;
15764;SDS011;7983;50.744;7.086;2023-04-03T06:36:53;1.57;;;1.30;;
15764;SDS011;7983;50.744;7.086;2023-04-03T06:39:21;1.70;;;1.20;;
15764;SDS011;7983;50.744;7.086;2023-04-03T06:41:50;1.53;;;1.03;;
15764;SDS011;7983;50.744;7.086;2023-04-03T06:44:16;2.03;;;1.33;;
15764;SDS011;7983;50.744;7.086;2023-04-03T06:46:44;1.47;;;1.10;;
15764;SDS011;7983;50.744;7.086;2023-04-03T06:49:11;1.60;;;1.20;;
15764;SDS011;7983;50.744;7.086;2023-04-03T06:51:37;1.93;;;1.40;;
15764;SDS011;7983;50.744;7.086;2023-04-03T06:54:03;2.37;;;1.13;;
15764;SDS011;7983;50.744;7.086;2023-04-03T06:56:33;3.23;;;1.50;;
15764;SDS011;7983;50.744;7.086;2023-04-03T06:59:02;2.20;;;1.30;;
15764;SDS011;7983;50.744;7.086;2023-04-03T07:01:30;1.43;;;1.10;;
15764;SDS011;7983;50.744;7.086;2023-04-03T07:03:56;1.60;;;1.00;;
15764;SDS011;7983;50.744;7.086;2023-04-03T07:06:22;1.53;;;1.17;;
15764;SDS011;7983;50.744;7.086;2023-04-03T07:08:47;2.23;;;1.17;;
15764;SDS011;7983;50.744;7.086;2023-04-03T07:11:14;2.80;;;1.30;;
15764;SDS011;7983;50.744;7.086;2023-04-03T07:13:40;1.37;;;1.07;;
15764;SDS011;7983;50.744;7.086;2023-04-03T07:16:06;2.20;;;1.10;;
15764;SDS011;7983;50.744;7.086;2023-04-03T07:18:37;3.80;;;1.20;;
15764;SDS011;7983;50.744;7.086;2023-04-03T07:21:03;1.80;;;1.10;;
15764;SDS011;7983;50.744;7.086;2023-04-03T07:23:32;3.03;;;1.30;;
15764;SDS011;7983;50.744;7.086;2023-04-03T07:26:00;6.07;;;1.60;;
15764;SDS011;7983;50.744;7.086;2023-04-03T07:28:28;2.03;;;0.93;;
15764;SDS011;7983;50.744;7.086;2023-04-03T07:31:02;2.20;;;1.30;;
15764;SDS011;7983;50.744;7.086;2023-04-03T07:33:29;1.53;;;1.00;;
15764;SDS011;7983;50.744;7.086;2023-04-03T07:35:58;2.43;;;1.10;;
15764;SDS011;7983;50.744;7.086;2023-04-03T07:38:25;2.33;;;1.10;;
15764;SDS011;7983;50.744;7.086;2023-04-03T07:40:51;2.83;;;1.30;;
15764;SDS011;7983;50.744;7.086;2023-04-03T07:43:18;2.67;;;1.00;;
15764;SDS011;7983;50.744;7.086;2023-04-03T07:45:45;1.70;;;0.90;;
15764;SDS011;7983;50.744;7.086;2023-04-03T07:48:12;1.13;;;0.90;;
15764;SDS011;7983;50.744;7.086;2023-04-03T07:50:41;1.87;;;0.90;;
15764;SDS011;7983;50.744;7.086;2023-04-03T07:53:07;2.40;;;0.90;;
15764;SDS011;7983;50.744;7.086;2023-04-03T07:55:33;2.57;;;1.00;;
15764;SDS011;7983;50.744;7.086;2023-04-03T07:58:05;2.80;;;1.30;;
15764;SDS011;7983;50.744;7.086;2023-04-03T08:00:31;2.37;;;1.10;;
15764;SDS011;7983;50.744;7.086;2023-04-03T08:02:59;2.30;;;1.40;;
15764;SDS011;7983;50.744;7.086;2023-04-03T08:05:25;3.13;;;1.30;;
15764;SDS011;7983;50.744;7.086;2023-04-03T08:07:51;2.93;;;1.23;;
15764;SDS011;7983;50.744;7.086;2023-04-03T08:10:21;2.57;;;1.20;;
15764;SDS011;7983;50.744;7.086;2023-04-03T08:12:49;3.93;;;1.13;;
15764;SDS011;7983;50.744;7.086;2023-04-03T08:15:15;2.53;;;1.00;;
15764;SDS011;7983;50.744;7.086;2023-04-03T08:17:43;2.30;;;1.37;;
15764;SDS011;7983;50.744;7.086;2023-04-03T08:20:09;2.40;;;1.00;;
15764;SDS011;7983;50.744;7.086;2023-04-03T08:22:38;2.63;;;1.30;;
15764;SDS011;7983;50.744;7.086;2023-04-03T08:25:03;3.20;;;1.20;;
15764;SDS011;7983;50.744;7.086;2023-04-03T08:27:29;3.33;;;1.33;;
15764;SDS011;7983;50.744;7.086;2023-04-03T08:29:55;1.60;;;0.90;;
15764;SDS011;7983;50.744;7.086;2023-04-03T08:32:24;3.43;;;1.20;;
15764;SDS011;7983;50.744;7.086;2023-04-03T08:34:52;4.43;;;1.00;;
15764;SDS011;7983;50.744;7.086;2023-04-03T08:37:20;1.50;;;0.90;;
15764;SDS011;7983;50.744;7.086;2023-04-03T08:39:46;2.13;;;1.00;;
15764;SDS011;7983;50.744;7.086;2023-04-03T08:45:10;1.70;;;1.03;;
15764;SDS011;7983;50.744;7.086;2023-04-03T08:50:39;2.03;;;1.10;;
15764;SDS011;7983;50.744;7.086;2023-04-03T08:53:14;1.40;;;0.90;;
15764;SDS011;7983;50.744;7.086;2023-04-03T08:55:43;4.60;;;1.10;;
15764;SDS011;7983;50.744;7.086;2023-04-03T08:58:16;2.47;;;1.00;;
15764;SDS011;7983;50.744;7.086;2023-04-03T09:03:13;2.80;;;1.00;;
15764;SDS011;7983;50.744;7.086;2023-04-03T09:05:54;2.10;;;0.97;;
15764;SDS011;7983;50.744;7.086;2023-04-03T09:14:07;1.80;;;0.97;;
15764;SDS011;7983;50.744;7.086;2023-04-03T09:22:38;2.33;;;1.20;;
15764;SDS011;7983;50.744;7.086;2023-04-03T09:25:18;1.67;;;1.10;;
15764;SDS011;7983;50.744;7.086;2023-04-03T09:27:47;1.80;;;0.93;;
15764;SDS011;7983;50.744;7.086;2023-04-03T09:30:16;2.50;;;1.00;;
15764;SDS011;7983;50.744;7.086;2023-04-03T09:32:47;3.77;;;1.10;;
15764;SDS011;7983;50.744;7.086;2023-04-03T09:37:44;1.87;;;1.10;;
15764;SDS011;7983;50.744;7.086;2023-04-03T09:42:50;2.70;;;1.50;;
15764;SDS011;7983;50.744;7.086;2023-04-03T09:45:31;2.70;;;1.10;;
15764;SDS011;7983;50.744;7.086;2023-04-03T09:48:05;2.40;;;1.10;;
15764;SDS011;7983;50.744;7.086;2023-04-03T09:50:34;2.17;;;1.10;;
15764;SDS011;7983;50.744;7.086;2023-04-03T09:53:12;2.03;;;1.23;;
15764;SDS011;7983;50.744;7.086;2023-04-03T09:56:01;2.10;;;1.00;;
15764;SDS011;7983;50.744;7.086;2023-04-03T09:58:43;2.03;;;1.03;;
15764;SDS011;7983;50.744;7.086;2023-04-03T10:04:15;3.10;;;1.00;;
15764;SDS011;7983;50.744;7.086;2023-04-03T10:06:54;2.42;;;0.93;;
15764;SDS011;7983;50.744;7.086;2023-04-03T10:09:29;1.60;;;0.95;;
15764;SDS011;7983;50.744;7.086;2023-04-03T10:14:40;1.95;;;0.93;;
15764;SDS011;7983;50.744;7.086;2023-04-03T10:17:29;2.10;;;0.98;;
15764;SDS011;7983;50.744;7.086;2023-04-03T10:20:27;1.88;;;0.75;;
15764;SDS011;7983;50.744;7.086;2023-04-03T10:23:17;2.53;;;1.05;;
15764;SDS011;7983;50.744;7.086;2023-04-03T10:25:55;2.13;;;1.00;;
15764;SDS011;7983;50.744;7.086;2023-04-03T10:36:46;1.70;;;0.80;;
15764;SDS011;7983;50.744;7.086;2023-04-03T10:39:41;2.25;;;1.00;;
15764;SDS011;7983;50.744;7.086;2023-04-03T10:45:19;2.72;;;1.30;;
15764;SDS011;7983;50.744;7.086;2023-04-03T10:48:02;1.75;;;0.90;;
15764;SDS011;7983;50.744;7.086;2023-04-03T10:53:44;1.17;;;0.80;;
15764;SDS011;7983;50.744;7.086;2023-04-03T10:58:46;1.52;;;0.82;;
15764;SDS011;7983;50.744;7.086;2023-04-03T11:01:18;2.47;;;0.85;;
15764;SDS011;7983;50.744;7.086;2023-04-03T11:04:06;1.65;;;1.02;;
15764;SDS011;7983;50.744;7.086;2023-04-03T11:06:38;1.83;;;0.90;;
15764;SDS011;7983;50.744;7.086;2023-04-03T11:12:00;1.83;;;0.80;;
15764;SDS011;7983;50.744;7.086;2023-04-03T11:14:32;1.83;;;0.95;;
15764;SDS011;7983;50.744;7.086;2023-04-03T11:17:19;4.70;;;0.88;;
15764;SDS011;7983;50.744;7.086;2023-04-03T11:27:31;1.83;;;0.98;;
15764;SDS011;7983;50.744;7.086;2023-04-03T11:30:15;1.73;;;1.00;;
15764;SDS011;7983;50.744;7.086;2023-04-03T11:35:32;2.22;;;1.30;;
15764;SDS011;7983;50.744;7.086;2023-04-03T11:37:59;1.60;;;1.00;;
15764;SDS011;7983;50.744;7.086;2023-04-03T11:40:36;1.70;;;1.10;;
15764;SDS011;7983;50.744;7.086;2023-04-03T11:43:07;1.67;;;1.00;;
15764;SDS011;7983;50.744;7.086;2023-04-03T11:51:01;1.35;;;0.70;;
15764;SDS011;7983;50.744;7.086;2023-04-03T11:53:47;1.95;;;0.85;;
15764;SDS011;7983;50.744;7.086;2023-04-03T12:04:14;2.70;;;0.80;;
15764;SDS011;7983;50.744;7.086;2023-04-03T12:11:55;1.75;;;0.90;;
15764;SDS011;7983;50.744;7.086;2023-04-03T12:14:23;1.10;;;0.80;;
15764;SDS011;7983;50.744;7.086;2023-04-03T12:16:50;3.33;;;1.30;;
15764;SDS011;7983;50.744;7.086;2023-04-03T12:22:15;1.67;;;1.00;;
15764;SDS011;7983;50.744;7.086;2023-04-03T12:24:46;2.03;;;1.00;;
15764;SDS011;7983;50.744;7.086;2023-04-03T12:27:28;3.67;;;0.88;;
15764;SDS011;7983;50.744;7.086;2023-04-03T12:30:07;1.15;;;0.88;;
15764;SDS011;7983;50.744;7.086;2023-04-03T12:44:00;1.30;;;0.80;;
15764;SDS011;7983;50.744;7.086;2023-04-03T12:46:36;1.50;;;0.70;;
15764;SDS011;7983;50.744;7.086;2023-04-03T12:49:33;0.82;;;0.57;;
15764;SDS011;7983;50.744;7.086;2023-04-03T12:52:04;2.15;;;0.93;;
15764;SDS011;7983;50.744;7.086;2023-04-03T12:54:42;2.45;;;1.00;;
15764;SDS011;7983;50.744;7.086;2023-04-03T12:57:12;1.88;;;0.90;;
15764;SDS011;7983;50.744;7.086;2023-04-03T12:59:45;1.67;;;0.90;;
15764;SDS011;7983;50.744;7.086;2023-04-03T13:05:10;1.45;;;0.85;;
15764;SDS011;7983;50.744;7.086;2023-04-03T13:07:41;1.33;;;0.90;;
15764;SDS011;7983;50.744;7.086;2023-04-03T13:12:51;2.15;;;1.08;;
15764;SDS011;7983;50.744;7.086;2023-04-03T13:15:40;2.85;;;1.20;;
15764;SDS011;7983;50.744;7.086;2023-04-03T13:21:17;1.50;;;1.10;;
15764;SDS011;7983;50.744;7.086;2023-04-03T13:23:47;1.15;;;0.80;;
15764;SDS011;7983;50.744;7.086;2023-04-03T13:26:33;1.40;;;0.85;;
15764;SDS011;7983;50.744;7.086;2023-04-03T13:29:04;2.40;;;1.02;;
15764;SDS011;7983;50.744;7.086;2023-04-03T13:31:36;2.50;;;1.50;;
15764;SDS011;7983;50.744;7.086;2023-04-03T13:34:07;3.53;;;1.40;;
15764;SDS011;7983;50.744;7.086;2023-04-03T13:41:48;1.63;;;0.95;;
15764;SDS011;7983;50.744;7.086;2023-04-03T13:46:40;1.08;;;0.70;;
15764;SDS011;7983;50.744;7.086;2023-04-03T13:51:57;1.30;;;0.82;;
15764;SDS011;7983;50.744;7.086;2023-04-03T13:54:33;2.17;;;0.90;;
15764;SDS011;7983;50.744;7.086;2023-04-03T13:57:01;1.63;;;1.00;;
15764;SDS011;7983;50.744;7.086;2023-04-03T13:59:36;1.10;;;0.73;;
15764;SDS011;7983;50.744;7.086;2023-04-03T14:04:32;2.05;;;0.80;;
15764;SDS011;7983;50.744;7.086;2023-04-03T14:07:14;0.95;;;0.70;;
15764;SDS011;7983;50.744;7.086;2023-04-03T14:09:41;1.67;;;0.82;;
15764;SDS011;7983;50.744;7.086;2023-04-03T14:12:42;1.73;;;0.90;;
15764;SDS011;7983;50.744;7.086;2023-04-03T14:15:27;0.95;;;0.70;;
15764;SDS011;7983;50.744;7.086;2023-04-03T14:17:54;1.40;;;0.80;;
15764;SDS011;7983;50.744;7.086;2023-04-03T14:20:24;2.00;;;0.85;;
15764;SDS011;7983;50.744;7.086;2023-04-03T14:22:51;2.10;;;0.90;;
15764;SDS011;7983;50.744;7.086;2023-04-03T14:25:20;2.15;;;1.10;;
15764;SDS011;7983;50.744;7.086;2023-04-03T14:27:50;2.08;;;0.95;;
15764;SDS011;7983;50.744;7.086;2023-04-03T14:30:27;1.67;;;0.88;;
15764;SDS011;7983;50.744;7.086;2023-04-03T14:32:55;1.48;;;0.75;;
15764;SDS011;7983;50.744;7.086;2023-04-03T14:35:21;2.95;;;0.82;;
15764;SDS011;7983;50.744;7.086;2023-04-03T14:37:48;2.05;;;0.90;;
15764;SDS011;7983;50.744;7.086;2023-04-03T14:40:15;1.17;;;0.77;;
15764;SDS011;7983;50.744;7.086;2023-04-03T14:42:43;1.70;;;0.80;;
15764;SDS011;7983;50.744;7.086;2023-04-03T14:45:10;1.52;;;0.90;;
15764;SDS011;7983;50.744;7.086;2023-04-03T14:47:39;1.02;;;0.80;;
15764;SDS011;7983;50.744;7.086;2023-04-03T14:50:25;1.70;;;0.80;;
15764;SDS011;7983;50.744;7.086;2023-04-03T14:52:53;1.25;;;0.90;;
15764;SDS011;7983;50.744;7.086;2023-04-03T14:55:20;2.25;;;1.35;;
15764;SDS011;7983;50.744;7.086;2023-04-03T14:57:48;1.48;;;0.90;;
15764;SDS011;7983;50.744;7.086;2023-04-03T15:00:15;1.70;;;1.17;;
15764;SDS011;7983;50.744;7.086;2023-04-03T15:02:44;2.25;;;1.10;;
15764;SDS011;7983;50.744;7.086;2023-04-03T15:05:10;2.30;;;1.10;;
15764;SDS011;7983;50.744;7.086;2023-04-03T15:07:40;2.15;;;1.13;;
15764;SDS011;7983;50.744;7.086;2023-04-03T15:12:39;2.03;;;1.08;;
15764;SDS011;7983;50.744;7.086;2023-04-03T15:15:08;1.85;;;1.00;;
15764;SDS011;7983;50.744;7.086;2023-04-03T15:17:34;1.60;;;0.93;;
15764;SDS011;7983;50.744;7.086;2023-04-03T15:20:01;1.25;;;0.70;;
15764;SDS011;7983;50.744;7.086;2023-04-03T15:22:27;1.10;;;0.70;;
15764;SDS011;7983;50.744;7.086;2023-04-03T15:24:53;1.63;;;0.90;;
15764;SDS011;7983;50.744;7.086;2023-04-03T15:27:18;1.88;;;0.82;;
15764;SDS011;7983;50.744;7.086;2023-04-03T15:29:44;2.55;;;0.90;;
15764;SDS011;7983;50.744;7.086;2023-04-03T15:32:10;3.05;;;0.95;;
15764;SDS011;7983;50.744;7.086;2023-04-03T15:34:36;1.38;;;0.95;;
15764;SDS011;7983;50.744;7.086;2023-04-03T15:37:02;2.85;;;0.93;;
15764;SDS011;7983;50.744;7.086;2023-04-03T15:39:28;1.23;;;0.80;;
15764;SDS011;7983;50.744;7.086;2023-04-03T15:41:56;1.33;;;0.90;;
15764;SDS011;7983;50.744;7.086;2023-04-03T15:44:31;1.35;;;0.80;;
15764;SDS011;7983;50.744;7.086;2023-04-03T15:46:58;1.73;;;0.80;;
15764;SDS011;7983;50.744;7.086;2023-04-03T15:49:25;1.13;;;0.80;;
15764;SDS011;7983;50.744;7.086;2023-04-03T15:51:51;2.80;;;0.90;;
15764;SDS011;7983;50.744;7.086;2023-04-03T15:54:19;2.08;;;0.82;;
15764;SDS011;7983;50.744;7.086;2023-04-03T15:56:48;2.58;;;1.00;;
15764;SDS011;7983;50.744;7.086;2023-04-03T15:59:19;1.60;;;0.77;;
15764;SDS011;7983;50.744;7.086;2023-04-03T16:01:47;2.25;;;1.10;;
15764;SDS011;7983;50.744;7.086;2023-04-03T16:04:13;2.40;;;1.10;;
15764;SDS011;7983;50.744;7.086;2023-04-03T16:06:42;2.70;;;1.10;;
15764;SDS011;7983;50.744;7.086;2023-04-03T16:09:08;1.75;;;1.00;;
15764;SDS011;7983;50.744;7.086;2023-04-03T16:11:35;2.47;;;1.20;;
15764;SDS011;7983;50.744;7.086;2023-04-03T16:14:02;2.20;;;1.17;;
15764;SDS011;7983;50.744;7.086;2023-04-03T16:16:30;4.00;;;2.45;;
15764;SDS011;7983;50.744;7.086;2023-04-03T16:18:55;2.40;;;1.30;;
15764;SDS011;7983;50.744;7.086;2023-04-03T16:21:24;1.83;;;0.90;;
15764;SDS011;7983;50.744;7.086;2023-04-03T16:23:52;2.33;;;1.10;;
15764;SDS011;7983;50.744;7.086;2023-04-03T16:26:18;1.70;;;1.10;;
15764;SDS011;7983;50.744;7.086;2023-04-03T16:28:46;2.38;;;1.00;;
15764;SDS011;7983;50.744;7.086;2023-04-03T16:31:14;1.88;;;1.00;;
15764;SDS011;7983;50.744;7.086;2023-04-03T16:33:39;1.17;;;0.88;;
15764;SDS011;7983;50.744;7.086;2023-04-03T16:36:05;1.60;;;0.90;;
15764;SDS011;7983;50.744;7.086;2023-04-03T16:38:31;1.00;;;0.60;;
15764;SDS011;7983;50.744;7.086;2023-04-03T16:41:02;1.52;;;0.98;;
15764;SDS011;7983;50.744;7.086;2023-04-03T16:43:30;1.35;;;0.95;;
15764;SDS011;7983;50.744;7.086;2023-04-03T16:46:00;1.42;;;0.88;;
15764;SDS011;7983;50.744;7.086;2023-04-03T16:48:28;1.30;;;0.80;;
15764;SDS011;7983;50.744;7.086;2023-04-03T16:50:55;1.70;;;0.95;;
15764;SDS011;7983;50.744;7.086;2023-04-03T16:53:21;2.10;;;1.00;;
15764;SDS011;7983;50.744;7.086;2023-04-03T16:55:47;1.58;;;0.90;;
15764;SDS011;7983;50.744;7.086;2023-04-03T16:58:15;1.80;;;0.77;;
15764;SDS011;7983;50.744;7.086;2023-04-03T17:00:44;1.95;;;0.93;;
15764;SDS011;7983;50.744;7.086;2023-04-03T17:03:12;2.85;;;1.02;;
15764;SDS011;7983;50.744;7.086;2023-04-03T17:05:40;2.35;;;1.00;;
15764;SDS011;7983;50.744;7.086;2023-04-03T17:08:05;1.15;;;0.90;;
15764;SDS011;7983;50.744;7.086;2023-04-03T17:10:31;1.45;;;0.90;;
15764;SDS011;7983;50.744;7.086;2023-04-03T17:12:59;2.00;;;1.13;;
15764;SDS011;7983;50.744;7.086;2023-04-03T17:15:27;1.20;;;0.90;;